createdAt,value
2019-01-02T00:00:01.230Z,2.09
2019-01-02T00:01:01.230Z,2.03
2019-01-02T00:02:01.235Z,2.18
2019-01-02T00:03:01.244Z,2.00
2019-01-02T00:04:01.257Z,1.99
2019-01-02T00:05:01.261Z,1.99
2019-01-02T00:06:01.270Z,1.99
2019-01-02T00:07:01.278Z,2.00
2019-01-02T00:08:01.289Z,1.98
2019-01-02T00:09:01.295Z,1.99
2019-01-02T00:10:01.305Z,1.95
2019-01-02T00:11:01.313Z,1.93
2019-01-02T00:12:01.320Z,1.91
2019-01-02T00:13:01.331Z,2.05
2019-01-02T00:14:01.353Z,2.06
2019-01-02T00:15:01.353Z,2.06
2019-01-02T00:16:01.362Z,2.03
2019-01-02T00:17:01.362Z,2.06
2019-01-02T00:18:01.370Z,2.02
2019-01-02T00:19:01.390Z,2.03
2019-01-02T00:20:01.387Z,2.17
2019-01-02T00:21:01.398Z,2.16
2019-01-02T00:22:01.405Z,2.18
2019-01-02T00:23:01.412Z,2.10
2019-01-02T00:24:01.423Z,2.21
2019-01-02T00:25:01.428Z,2.25
2019-01-02T00:26:01.436Z,2.30
2019-01-02T00:27:01.445Z,2.34
2019-01-02T00:28:01.452Z,2.38
2019-01-02T00:29:01.462Z,2.45
2019-01-02T00:30:01.471Z,2.57
2019-01-02T00:31:01.476Z,2.45
2019-01-02T00:32:01.486Z,2.60
2019-01-02T00:33:01.498Z,2.63
2019-01-02T00:34:01.502Z,2.66
2019-01-02T00:35:01.509Z,2.61
2019-01-02T00:36:01.516Z,2.63
2019-01-02T00:37:01.527Z,2.59
2019-01-02T00:38:01.536Z,2.43
2019-01-02T00:39:01.539Z,2.43
2019-01-02T00:40:01.550Z,2.38
2019-01-02T00:41:01.556Z,2.24
2019-01-02T00:42:01.567Z,2.18
2019-01-02T00:43:01.573Z,2.23
2019-01-02T00:44:01.582Z,2.23
2019-01-02T00:45:01.591Z,2.17
2019-01-02T00:46:01.597Z,2.14
2019-01-02T00:47:01.604Z,2.17
2019-01-02T00:48:01.614Z,2.16
2019-01-02T00:49:01.624Z,2.14
2019-01-02T00:50:01.629Z,2.10
2019-01-02T00:51:01.638Z,2.18
2019-01-02T00:52:01.647Z,2.07
2019-01-02T00:53:01.688Z,2.14
2019-01-02T00:54:01.664Z,2.07
2019-01-02T00:55:01.674Z,2.06
2019-01-02T00:56:02.311Z,1.93
2019-01-02T00:57:01.687Z,1.81
2019-01-02T00:58:01.694Z,1.72
2019-01-02T00:59:01.701Z,1.63
2019-01-02T01:00:01.717Z,1.65
2019-01-02T01:01:01.717Z,1.72
2019-01-02T01:02:01.724Z,1.69
2019-01-02T01:03:01.735Z,1.60
2019-01-02T01:04:01.744Z,1.45
2019-01-02T01:05:01.748Z,1.50
2019-01-02T01:06:01.760Z,1.45
2019-01-02T01:07:01.764Z,1.37
2019-01-02T01:08:01.774Z,1.42
2019-01-02T01:09:01.796Z,1.44
2019-01-02T01:10:01.794Z,1.51
2019-01-02T01:11:01.797Z,1.55
2019-01-02T01:12:01.805Z,1.59
2019-01-02T01:13:01.813Z,1.76
2019-01-02T01:14:01.824Z,1.81
2019-01-02T01:15:01.829Z,2.03
2019-01-02T01:16:01.836Z,2.03
2019-01-02T01:17:01.843Z,2.12
2019-01-02T01:18:01.853Z,2.24
2019-01-02T01:19:01.860Z,2.20
2019-01-02T01:20:01.920Z,2.12
2019-01-02T01:21:01.876Z,2.18
2019-01-02T01:22:01.882Z,2.21
2019-01-02T01:23:01.890Z,2.18
2019-01-02T01:24:01.898Z,2.21
2019-01-02T01:25:01.906Z,2.28
2019-01-02T01:26:02.260Z,2.27
2019-01-02T01:27:01.921Z,2.25
2019-01-02T01:28:01.933Z,2.20
2019-01-02T01:29:01.936Z,2.23
2019-01-02T01:30:01.946Z,2.20
2019-01-02T01:31:01.960Z,1.83
2019-01-02T01:32:01.962Z,1.77
2019-01-02T01:33:01.974Z,1.65
2019-01-02T01:34:01.975Z,1.59
2019-01-02T01:35:01.988Z,1.52
2019-01-02T01:36:01.996Z,1.59
2019-01-02T01:37:01.998Z,1.60
2019-01-02T01:38:02.008Z,1.54
2019-01-02T01:39:02.020Z,1.48
2019-01-02T01:40:02.027Z,1.45
2019-01-02T01:41:02.028Z,1.51
2019-01-02T01:42:02.041Z,1.47
2019-01-02T01:43:02.050Z,1.44
2019-01-02T01:44:02.054Z,1.50
2019-01-02T01:45:02.063Z,1.62
2019-01-02T01:46:02.071Z,1.65
2019-01-02T01:47:02.079Z,1.69
2019-01-02T01:48:02.092Z,1.60
2019-01-02T01:49:02.094Z,1.63
2019-01-02T01:50:02.101Z,1.66
2019-01-02T01:51:02.107Z,1.66
2019-01-02T01:52:02.116Z,1.65
2019-01-02T01:53:02.122Z,1.60
2019-01-02T01:54:02.129Z,1.52
2019-01-02T01:55:02.137Z,1.48
2019-01-02T01:56:02.147Z,1.45
2019-01-02T01:57:02.153Z,1.41
2019-01-02T01:58:02.161Z,1.33
2019-01-02T01:59:02.169Z,1.23
2019-01-02T02:00:02.175Z,1.12
2019-01-02T02:01:02.184Z,1.16
2019-01-02T02:02:02.190Z,1.00
2019-01-02T02:03:02.198Z,1.02
2019-01-02T02:04:02.205Z,1.04
2019-01-02T02:05:02.213Z,0.98
2019-01-02T02:06:02.221Z,0.80
2019-01-02T02:07:02.227Z,0.70
2019-01-02T02:08:02.237Z,0.72
2019-01-02T02:09:02.243Z,0.75
2019-01-02T02:10:02.249Z,0.70
2019-01-02T02:11:02.256Z,0.58
2019-01-02T02:12:02.266Z,0.55
2019-01-02T02:13:02.270Z,0.50
2019-01-02T02:14:02.279Z,0.44
2019-01-02T02:15:02.291Z,0.38
2019-01-02T02:16:02.294Z,0.38
2019-01-02T02:17:02.302Z,0.20
2019-01-02T02:18:02.310Z,0.00
2019-01-02T02:19:02.334Z,0.02
2019-01-02T02:20:02.324Z,-0.07
2019-01-02T02:21:02.327Z,-0.14
2019-01-02T02:22:02.336Z,-0.15
2019-01-02T02:23:02.348Z,-0.23
2019-01-02T02:24:02.392Z,-0.23
2019-01-02T02:25:02.358Z,-0.28
2019-01-02T02:26:02.364Z,-0.31
2019-01-02T02:27:02.372Z,-0.31
2019-01-02T02:28:02.379Z,-0.26
2019-01-02T02:29:02.385Z,-0.29
2019-01-02T02:30:02.393Z,-0.19
2019-01-02T02:31:02.397Z,-0.19
2019-01-02T02:32:02.405Z,-0.16
2019-01-02T02:33:02.414Z,-0.18
2019-01-02T02:34:02.416Z,-0.15
2019-01-02T02:35:02.424Z,-0.18
2019-01-02T02:36:02.429Z,-0.15
2019-01-02T02:37:02.435Z,-0.11
2019-01-02T02:38:02.442Z,-0.16
2019-01-02T02:39:02.450Z,-0.16
2019-01-02T02:40:02.457Z,-0.19
2019-01-02T02:41:02.462Z,-0.18
2019-01-02T02:42:02.470Z,-0.19
2019-01-02T02:43:02.476Z,-0.26
2019-01-02T02:44:02.483Z,-0.31
2019-01-02T02:45:02.489Z,-0.37
2019-01-02T02:46:02.496Z,-0.33
2019-01-02T02:47:02.505Z,-0.40
2019-01-02T02:48:02.510Z,-0.37
2019-01-02T02:49:02.514Z,-0.34
2019-01-02T02:50:02.522Z,-0.40
2019-01-02T02:51:02.529Z,-0.31
2019-01-02T02:52:02.539Z,-0.36
2019-01-02T02:53:02.539Z,-0.55
2019-01-02T02:54:02.545Z,-0.40
2019-01-02T02:55:02.552Z,-0.42
2019-01-02T02:56:02.560Z,-0.51
2019-01-02T02:57:02.562Z,-0.47
2019-01-02T02:58:02.571Z,-0.51
2019-01-02T02:59:02.578Z,-0.47
2019-01-02T03:00:02.584Z,-0.54
2019-01-02T03:01:02.589Z,-0.60
2019-01-02T03:02:02.597Z,-0.54
2019-01-02T03:03:02.601Z,-0.44
2019-01-02T03:04:02.608Z,-0.51
2019-01-02T03:05:02.614Z,-0.57
2019-01-02T03:06:02.622Z,-0.52
2019-01-02T03:07:02.633Z,-0.65
2019-01-02T03:08:02.635Z,-0.69
2019-01-02T03:09:02.639Z,-0.75
2019-01-02T03:10:02.647Z,-0.79
2019-01-02T03:11:02.653Z,-0.79
2019-01-02T03:12:02.661Z,-0.75
2019-01-02T03:13:02.666Z,-0.97
2019-01-02T03:14:02.671Z,-1.02
2019-01-02T03:15:02.679Z,-1.22
2019-01-02T03:16:02.684Z,-1.17
2019-01-02T03:17:02.689Z,-1.23
2019-01-02T03:18:02.699Z,-1.25
2019-01-02T03:19:02.702Z,-1.30
2019-01-02T03:20:02.708Z,-1.38
2019-01-02T03:21:02.714Z,-1.35
2019-01-02T03:22:02.720Z,-1.55
2019-01-02T03:23:02.725Z,-1.38
2019-01-02T03:24:02.731Z,-1.45
2019-01-02T03:25:02.740Z,-1.37
2019-01-02T03:26:02.746Z,-1.38
2019-01-02T03:27:02.749Z,-1.41
2019-01-02T03:28:02.755Z,-1.38
2019-01-02T03:29:02.763Z,-1.43
2019-01-02T03:30:02.769Z,-1.35
2019-01-02T03:31:02.775Z,-1.38
2019-01-02T03:32:02.781Z,-1.41
2019-01-02T03:33:02.784Z,-1.38
2019-01-02T03:34:02.792Z,-1.41
2019-01-02T03:35:02.796Z,-1.46
2019-01-02T03:36:02.801Z,-1.52
2019-01-02T03:37:02.808Z,-1.69
2019-01-02T03:38:02.816Z,-1.80
2019-01-02T03:39:02.821Z,-1.91
2019-01-02T03:40:02.826Z,-1.95
2019-01-02T03:41:02.830Z,-1.92
2019-01-02T03:42:02.842Z,-2.00
2019-01-02T03:43:02.843Z,-1.92
2019-01-02T03:44:02.851Z,-1.92
2019-01-02T03:45:02.855Z,-1.90
2019-01-02T03:46:02.860Z,-1.85
2019-01-02T03:47:02.865Z,-1.88
2019-01-02T03:48:02.871Z,-1.95
2019-01-02T03:49:02.876Z,-1.97
2019-01-02T03:50:02.882Z,-1.94
2019-01-02T03:51:02.890Z,-1.98
2019-01-02T03:52:02.892Z,-1.92
2019-01-02T03:53:02.898Z,-1.92
2019-01-02T03:54:02.902Z,-1.91
2019-01-02T03:55:02.908Z,-1.87
2019-01-02T03:56:02.914Z,-1.82
2019-01-02T03:57:02.919Z,-1.87
2019-01-02T03:58:02.924Z,-1.79
2019-01-02T03:59:02.929Z,-1.88
2019-01-02T04:00:02.934Z,-1.88
2019-01-02T04:01:02.941Z,-1.87
2019-01-02T04:02:02.945Z,-1.82
2019-01-02T04:03:02.953Z,-1.82
2019-01-02T04:04:02.956Z,-1.90
2019-01-02T04:05:02.961Z,-1.82
2019-01-02T04:06:02.966Z,-1.92
2019-01-02T04:07:02.974Z,-1.97
2019-01-02T04:08:02.978Z,-1.98
2019-01-02T04:09:02.982Z,-1.92
2019-01-02T04:10:02.988Z,-1.92
2019-01-02T04:11:02.992Z,-1.91
2019-01-02T04:12:02.998Z,-1.97
2019-01-02T04:13:03.003Z,-1.90
2019-01-02T04:14:03.010Z,-1.84
2019-01-02T04:15:03.018Z,-1.92
2019-01-02T04:16:03.024Z,-1.90
2019-01-02T04:17:03.029Z,-1.91
2019-01-02T04:18:03.031Z,-1.92
2019-01-02T04:19:03.036Z,-1.91
2019-01-02T04:20:03.041Z,-1.95
2019-01-02T04:21:03.049Z,-1.91
2019-01-02T04:22:03.053Z,-1.88
2019-01-02T04:23:03.055Z,-1.85
2019-01-02T04:24:03.064Z,-1.82
2019-01-02T04:25:03.066Z,-1.85
2019-01-02T04:26:03.073Z,-1.84
2019-01-02T04:27:03.074Z,-1.84
2019-01-02T04:28:03.082Z,-1.88
2019-01-02T04:29:03.086Z,-1.87
2019-01-02T04:30:03.090Z,-1.84
2019-01-02T04:31:03.095Z,-1.91
2019-01-02T04:32:03.105Z,-1.90
2019-01-02T04:33:03.105Z,-1.94
2019-01-02T04:34:03.113Z,-1.90
2019-01-02T04:35:03.116Z,-1.95
2019-01-02T04:36:03.123Z,-1.90
2019-01-02T04:37:03.129Z,-1.94
2019-01-02T04:38:03.132Z,-1.87
2019-01-02T04:39:03.136Z,-1.91
2019-01-02T04:40:03.150Z,-1.90
2019-01-02T04:41:03.149Z,-1.97
2019-01-02T04:42:03.154Z,-1.98
2019-01-02T04:43:03.159Z,-1.98
2019-01-02T04:44:03.165Z,-1.88
2019-01-02T04:45:03.171Z,-1.94
2019-01-02T04:46:03.174Z,-1.92
2019-01-02T04:47:03.179Z,-1.92
2019-01-02T04:48:03.182Z,-1.94
2019-01-02T04:49:03.187Z,-1.95
2019-01-02T04:50:03.195Z,-2.02
2019-01-02T04:51:03.199Z,-2.05
2019-01-02T04:52:03.203Z,-2.06
2019-01-02T04:53:03.209Z,-1.97
2019-01-02T04:54:03.213Z,-1.98
2019-01-02T04:55:03.222Z,-2.09
2019-01-02T04:56:03.512Z,-2.02
2019-01-02T04:57:03.228Z,-2.12
2019-01-02T04:58:03.233Z,-2.00
2019-01-02T04:59:03.240Z,-2.06
2019-01-02T05:00:03.247Z,-2.03
2019-01-02T05:01:03.252Z,-2.06
2019-01-02T05:02:03.254Z,-2.02
2019-01-02T05:03:03.260Z,-2.05
2019-01-02T05:04:03.274Z,-1.98
2019-01-02T05:05:03.268Z,-1.95
2019-01-02T05:06:03.274Z,-2.02
2019-01-02T05:07:03.281Z,-1.94
2019-01-02T05:08:03.286Z,-1.95
2019-01-02T05:09:03.291Z,-1.98
2019-01-02T05:10:03.296Z,-1.98
2019-01-02T05:11:03.303Z,-1.90
2019-01-02T05:12:03.310Z,-1.98
2019-01-02T05:13:03.344Z,-2.12
2019-01-02T05:14:03.314Z,-2.09
2019-01-02T05:15:03.321Z,-2.05
2019-01-02T05:16:03.326Z,-2.09
2019-01-02T05:17:03.329Z,-2.03
2019-01-02T05:18:03.338Z,-2.00
2019-01-02T05:19:03.353Z,-2.03
2019-01-02T05:20:03.344Z,-2.05
2019-01-02T05:21:03.350Z,-1.98
2019-01-02T05:22:03.366Z,-2.05
2019-01-02T05:23:03.358Z,-2.20
2019-01-02T05:24:03.365Z,-2.16
2019-01-02T05:25:03.370Z,-2.24
2019-01-02T05:26:03.374Z,-2.29
2019-01-02T05:27:03.381Z,-2.21
2019-01-02T05:28:03.387Z,-2.21
2019-01-02T05:29:03.390Z,-2.21
2019-01-02T05:30:03.394Z,-2.21
2019-01-02T05:31:03.402Z,-2.20
2019-01-02T05:32:03.408Z,-2.18
2019-01-02T05:33:03.413Z,-2.21
2019-01-02T05:34:03.414Z,-2.23
2019-01-02T05:35:03.420Z,-2.24
2019-01-02T05:36:03.425Z,-2.24
2019-01-02T05:37:03.429Z,-2.26
2019-01-02T05:38:03.437Z,-2.37
2019-01-02T05:39:03.438Z,-2.52
2019-01-02T05:40:03.444Z,-2.60
2019-01-02T05:41:03.448Z,-2.70
2019-01-02T05:42:03.454Z,-2.73
2019-01-02T05:43:03.458Z,-2.63
2019-01-02T05:44:03.467Z,-2.55
2019-01-02T05:45:03.466Z,-2.58
2019-01-02T05:46:03.473Z,-2.49
2019-01-02T05:47:03.476Z,-2.60
2019-01-02T05:48:03.481Z,-2.42
2019-01-02T05:49:03.484Z,-2.40
2019-01-02T05:50:03.491Z,-2.40
2019-01-02T05:51:03.495Z,-2.40
2019-01-02T05:52:03.505Z,-2.34
2019-01-02T05:53:03.505Z,-2.30
2019-01-02T05:54:03.510Z,-2.16
2019-01-02T05:55:03.514Z,-2.15
2019-01-02T05:56:03.519Z,-2.09
2019-01-02T05:57:03.523Z,-2.13
2019-01-02T05:58:03.530Z,-2.10
2019-01-02T05:59:03.532Z,-2.15
2019-01-02T06:00:03.539Z,-2.08
2019-01-02T06:01:03.543Z,-2.10
2019-01-02T06:02:03.549Z,-2.06
2019-01-02T06:03:03.556Z,-2.20
2019-01-02T06:04:03.560Z,-2.30
2019-01-02T06:05:03.569Z,-2.26
2019-01-02T06:06:03.567Z,-2.26
2019-01-02T06:07:03.573Z,-2.34
2019-01-02T06:08:03.576Z,-2.30
2019-01-02T06:09:03.583Z,-2.29
2019-01-02T06:10:03.587Z,-2.26
2019-01-02T06:11:03.593Z,-2.23
2019-01-02T06:12:03.596Z,-2.26
2019-01-02T06:13:03.602Z,-2.21
2019-01-02T06:14:03.605Z,-2.21
2019-01-02T06:15:03.610Z,-2.21
2019-01-02T06:16:03.615Z,-2.26
2019-01-02T06:17:03.621Z,-2.29
2019-01-02T06:18:03.627Z,-2.37
2019-01-02T06:19:03.630Z,-2.37
2019-01-02T06:20:03.633Z,-2.34
2019-01-02T06:21:03.640Z,-2.34
2019-01-02T06:22:03.645Z,-2.32
2019-01-02T06:23:03.649Z,-2.35
2019-01-02T06:24:03.656Z,-2.45
2019-01-02T06:25:03.663Z,-2.35
2019-01-02T06:26:03.662Z,-2.37
2019-01-02T06:27:03.669Z,-2.42
2019-01-02T06:28:03.673Z,-2.39
2019-01-02T06:29:03.677Z,-2.40
2019-01-02T06:30:03.681Z,-2.48
2019-01-02T06:31:03.688Z,-2.43
2019-01-02T06:32:03.695Z,-2.49
2019-01-02T06:33:03.695Z,-2.43
2019-01-02T06:34:03.702Z,-2.55
2019-01-02T06:35:03.707Z,-2.48
2019-01-02T06:36:03.714Z,-2.55
2019-01-02T06:37:03.716Z,-2.43
2019-01-02T06:38:03.718Z,-2.42
2019-01-02T06:39:03.728Z,-2.48
2019-01-02T06:40:03.734Z,-2.45
2019-01-02T06:41:03.736Z,-2.60
2019-01-02T06:42:03.738Z,-2.48
2019-01-02T06:43:03.743Z,-2.53
2019-01-02T06:44:03.751Z,-2.56
2019-01-02T06:45:03.753Z,-2.52
2019-01-02T06:46:03.797Z,-2.56
2019-01-02T06:47:03.762Z,-2.56
2019-01-02T06:48:03.768Z,-2.48
2019-01-02T06:49:03.770Z,-2.66
2019-01-02T06:50:03.777Z,-2.53
2019-01-02T06:51:03.780Z,-2.58
2019-01-02T06:52:03.784Z,-2.60
2019-01-02T06:53:03.788Z,-2.48
2019-01-02T06:54:03.792Z,-2.52
2019-01-02T06:55:03.805Z,-2.55
2019-01-02T06:56:03.802Z,-2.56
2019-01-02T06:57:03.805Z,-2.50
2019-01-02T06:58:03.810Z,-2.56
2019-01-02T06:59:03.817Z,-2.55
2019-01-02T07:00:03.821Z,-2.58
2019-01-02T07:01:03.824Z,-2.55
2019-01-02T07:02:03.829Z,-2.40
2019-01-02T07:03:03.833Z,-2.56
2019-01-02T07:04:03.843Z,-2.53
2019-01-02T07:05:03.841Z,-2.55
2019-01-02T07:06:03.846Z,-2.43
2019-01-02T07:07:03.851Z,-2.56
2019-01-02T07:08:03.856Z,-2.55
2019-01-02T07:09:03.873Z,-2.56
2019-01-02T07:10:03.866Z,-2.58
2019-01-02T07:11:03.869Z,-2.46
2019-01-02T07:12:03.876Z,-2.55
2019-01-02T07:13:03.878Z,-2.53
2019-01-02T07:14:03.884Z,-2.43
2019-01-02T07:15:03.886Z,-2.46
2019-01-02T07:16:03.892Z,-2.45
2019-01-02T07:17:03.895Z,-2.43
2019-01-02T07:18:03.901Z,-2.40
2019-01-02T07:19:03.904Z,-2.30
2019-01-02T07:20:03.909Z,-2.39
2019-01-02T07:21:03.912Z,-2.29
2019-01-02T07:22:03.917Z,-2.34
2019-01-02T07:23:03.924Z,-2.30
2019-01-02T07:24:03.928Z,-2.37
2019-01-02T07:25:03.932Z,-2.16
2019-01-02T07:26:03.934Z,-2.21
2019-01-02T07:27:03.941Z,-2.24
2019-01-02T07:28:03.952Z,-2.23
2019-01-02T07:29:03.952Z,-2.21
2019-01-02T07:30:03.954Z,-2.18
2019-01-02T07:31:03.961Z,-2.13
2019-01-02T07:32:03.965Z,-2.26
2019-01-02T07:33:03.968Z,-2.27
2019-01-02T07:34:03.974Z,-2.20
2019-01-02T07:35:03.978Z,-2.26
2019-01-02T07:36:03.985Z,-2.20
2019-01-02T07:37:03.985Z,-2.26
2019-01-02T07:38:04.002Z,-2.23
2019-01-02T07:39:03.997Z,-2.29
2019-01-02T07:40:04.004Z,-2.32
2019-01-02T07:41:04.007Z,-2.34
2019-01-02T07:42:04.017Z,-2.39
2019-01-02T07:43:04.022Z,-2.39
2019-01-02T07:44:04.022Z,-2.42
2019-01-02T07:45:04.026Z,-2.42
2019-01-02T07:46:04.060Z,-2.49
2019-01-02T07:47:04.033Z,-2.45
2019-01-02T07:48:04.041Z,-2.43
2019-01-02T07:49:04.046Z,-2.45
2019-01-02T07:50:04.049Z,-2.43
2019-01-02T07:51:04.057Z,-2.45
2019-01-02T07:52:04.059Z,-2.46
2019-01-02T07:53:04.063Z,-2.49
2019-01-02T07:54:04.065Z,-2.45
2019-01-02T07:55:04.070Z,-2.46
2019-01-02T07:56:04.078Z,-2.43
2019-01-02T07:57:04.078Z,-2.49
2019-01-02T07:58:04.083Z,-2.71
2019-01-02T07:59:04.095Z,-2.64
2019-01-02T08:00:04.096Z,-2.71
2019-01-02T08:01:04.094Z,-2.64
2019-01-02T08:02:04.100Z,-2.70
2019-01-02T08:03:04.105Z,-2.63
2019-01-02T08:04:04.109Z,-2.70
2019-01-02T08:05:04.118Z,-2.74
2019-01-02T08:06:04.116Z,-2.64
2019-01-02T08:07:04.122Z,-2.70
2019-01-02T08:08:04.128Z,-2.66
2019-01-02T08:09:04.132Z,-2.67
2019-01-02T08:10:04.134Z,-2.61
2019-01-02T08:11:04.140Z,-2.61
2019-01-02T08:12:04.147Z,-2.64
2019-01-02T08:13:04.148Z,-2.67
2019-01-02T08:14:04.152Z,-2.63
2019-01-02T08:15:04.156Z,-2.68
2019-01-02T08:16:04.161Z,-2.67
2019-01-02T08:17:04.168Z,-2.63
2019-01-02T08:18:04.168Z,-2.71
2019-01-02T08:19:04.172Z,-2.67
2019-01-02T08:20:04.225Z,-2.64
2019-01-02T08:21:04.181Z,-2.67
2019-01-02T08:22:04.186Z,-2.71
2019-01-02T08:23:04.199Z,-2.73
2019-01-02T08:24:04.195Z,-2.70
2019-01-02T08:25:04.198Z,-2.64
2019-01-02T08:26:04.205Z,-2.66
2019-01-02T08:27:04.209Z,-2.78
2019-01-02T08:28:04.213Z,-2.70
2019-01-02T08:29:04.216Z,-2.67
2019-01-02T08:30:04.219Z,-2.66
2019-01-02T08:31:04.224Z,-2.73
2019-01-02T08:32:04.232Z,-2.66
2019-01-02T08:33:04.233Z,-2.50
2019-01-02T08:34:04.239Z,-2.56
2019-01-02T08:35:04.240Z,-2.53
2019-01-02T08:36:04.247Z,-2.43
2019-01-02T08:37:04.249Z,-2.37
2019-01-02T08:38:04.253Z,-2.49
2019-01-02T08:39:04.262Z,-2.43
2019-01-02T08:40:04.265Z,-2.43
2019-01-02T08:41:04.267Z,-2.63
2019-01-02T08:42:04.281Z,-2.58
2019-01-02T08:43:04.279Z,-2.61
2019-01-02T08:44:04.280Z,-2.67
2019-01-02T08:45:04.283Z,-2.70
2019-01-02T08:46:04.289Z,-2.70
2019-01-02T08:47:04.296Z,-2.60
2019-01-02T08:48:04.296Z,-2.71
2019-01-02T08:49:04.302Z,-2.88
2019-01-02T08:50:04.308Z,-3.10
2019-01-02T08:51:04.312Z,-3.07
2019-01-02T08:52:04.313Z,-3.21
2019-01-02T08:53:04.320Z,-3.18
2019-01-02T08:54:04.322Z,-3.36
2019-01-02T08:55:04.329Z,-3.33
2019-01-02T08:56:04.333Z,-3.17
2019-01-02T08:57:04.336Z,-3.17
2019-01-02T08:58:04.339Z,-3.12
2019-01-02T08:59:04.345Z,-3.03
2019-01-02T09:00:04.351Z,-2.84
2019-01-02T09:01:04.357Z,-2.82
2019-01-02T09:02:04.361Z,-2.82
2019-01-02T09:03:04.359Z,-2.79
2019-01-02T09:04:04.367Z,-2.73
2019-01-02T09:05:04.370Z,-2.42
2019-01-02T09:06:04.378Z,-2.56
2019-01-02T09:07:04.381Z,-2.60
2019-01-02T09:08:04.386Z,-2.52
2019-01-02T09:09:04.386Z,-2.26
2019-01-02T09:10:04.391Z,-2.12
2019-01-02T09:11:04.395Z,-1.91
2019-01-02T09:12:04.404Z,-1.70
2019-01-02T09:13:04.403Z,-1.61
2019-01-02T09:14:04.416Z,-1.55
2019-01-02T09:15:04.415Z,-1.67
2019-01-02T09:16:04.435Z,-1.90
2019-01-02T09:17:04.421Z,-1.69
2019-01-02T09:18:04.427Z,-1.35
2019-01-02T09:19:04.432Z,-1.54
2019-01-02T09:20:04.437Z,-1.33
2019-01-02T09:21:04.445Z,-1.16
2019-01-02T09:22:04.445Z,-1.17
2019-01-02T09:23:04.453Z,-1.19
2019-01-02T09:24:04.457Z,-1.01
2019-01-02T09:25:04.459Z,-0.82
2019-01-02T09:26:04.463Z,-0.62
2019-01-02T09:27:04.468Z,-0.89
2019-01-02T09:28:04.478Z,-1.09
2019-01-02T09:29:04.480Z,-1.15
2019-01-02T09:30:04.488Z,-0.89
2019-01-02T09:31:04.492Z,-0.94
2019-01-02T09:32:04.495Z,-0.98
2019-01-02T09:33:04.498Z,-0.92
2019-01-02T09:34:04.504Z,-0.94
2019-01-02T09:35:04.508Z,-0.72
2019-01-02T09:36:04.550Z,-0.73
2019-01-02T09:37:04.521Z,-0.70
2019-01-02T09:38:04.528Z,-0.95
2019-01-02T09:39:04.530Z,-0.83
2019-01-02T09:40:04.534Z,-0.83
2019-01-02T09:41:04.537Z,-0.60
2019-01-02T09:42:04.544Z,-0.29
2019-01-02T09:43:04.550Z,-0.21
2019-01-02T09:44:04.553Z,-0.40
2019-01-02T09:45:04.560Z,-0.42
2019-01-02T09:46:04.566Z,-0.18
2019-01-02T09:47:04.571Z,0.10
2019-01-02T09:48:04.674Z,0.29
2019-01-02T09:49:04.577Z,0.04
2019-01-02T09:50:04.599Z,0.26
2019-01-02T09:51:04.593Z,0.44
2019-01-02T09:52:04.594Z,0.60
2019-01-02T09:53:04.601Z,0.65
2019-01-02T09:54:04.609Z,0.33
2019-01-02T09:55:04.611Z,0.33
2019-01-02T09:56:04.617Z,0.49
2019-01-02T09:57:04.625Z,0.53
2019-01-02T09:58:04.630Z,0.76
2019-01-02T09:59:05.322Z,0.70
2019-01-02T10:00:04.640Z,0.57
2019-01-02T10:01:04.644Z,0.88
2019-01-02T10:02:04.652Z,0.58
2019-01-02T10:03:04.658Z,-0.26
2019-01-02T10:04:04.713Z,-0.65
2019-01-02T10:05:04.668Z,-0.44
2019-01-02T10:06:04.674Z,0.02
2019-01-02T10:07:04.680Z,0.57
2019-01-02T10:08:04.687Z,1.02
2019-01-02T10:09:04.692Z,1.32
2019-01-02T10:10:04.698Z,1.09
2019-01-02T10:11:04.705Z,0.87
2019-01-02T10:12:04.711Z,0.80
2019-01-02T10:13:04.715Z,1.47
2019-01-02T10:14:04.722Z,1.83
2019-01-02T10:15:04.727Z,2.34
2019-01-02T10:16:04.735Z,2.75
2019-01-02T10:17:04.738Z,3.02
2019-01-02T10:18:04.748Z,3.18
2019-01-02T10:19:04.753Z,2.31
2019-01-02T10:20:04.760Z,1.95
2019-01-02T10:21:04.765Z,2.25
2019-01-02T10:22:04.779Z,2.56
2019-01-02T10:23:04.780Z,2.07
2019-01-02T10:24:04.787Z,2.06
2019-01-02T10:25:04.796Z,2.25
2019-01-02T10:26:04.799Z,1.29
2019-01-02T10:27:04.809Z,1.40
2019-01-02T10:28:04.814Z,1.83
2019-01-02T10:29:04.823Z,2.12
2019-01-02T10:30:04.833Z,1.90
2019-01-02T10:31:04.836Z,1.90
2019-01-02T10:32:04.846Z,1.66
2019-01-02T10:33:04.851Z,0.97
2019-01-02T10:34:04.858Z,1.11
2019-01-02T10:35:04.868Z,1.14
2019-01-02T10:36:04.876Z,1.47
2019-01-02T10:37:04.884Z,1.40
2019-01-02T10:38:04.889Z,1.63
2019-01-02T10:39:04.898Z,1.62
2019-01-02T10:40:04.904Z,1.62
2019-01-02T10:41:04.909Z,2.07
2019-01-02T10:42:04.918Z,1.77
2019-01-02T10:43:04.928Z,1.54
2019-01-02T10:44:04.933Z,1.95
2019-01-02T10:45:04.941Z,2.23
2019-01-02T10:46:04.950Z,2.53
2019-01-02T10:47:04.956Z,2.67
2019-01-02T10:48:04.963Z,2.90
2019-01-02T10:49:04.973Z,3.24
2019-01-02T10:50:04.978Z,3.39
2019-01-02T10:51:04.987Z,2.93
2019-01-02T10:52:04.993Z,3.03
2019-01-02T10:53:05.002Z,3.18
2019-01-02T10:54:05.012Z,3.21
2019-01-02T10:55:05.020Z,2.56
2019-01-02T10:56:05.028Z,2.49
2019-01-02T10:57:05.036Z,2.81
2019-01-02T10:58:05.042Z,2.79
2019-01-02T10:59:05.049Z,3.05
2019-01-02T11:00:05.061Z,2.77
2019-01-02T11:01:05.069Z,2.10
2019-01-02T11:02:05.074Z,1.69
2019-01-02T11:03:05.092Z,1.18
2019-01-02T11:04:05.089Z,1.58
2019-01-02T11:05:05.098Z,1.86
2019-01-02T11:06:05.113Z,2.38
2019-01-02T11:07:05.114Z,2.46
2019-01-02T11:08:05.122Z,2.39
2019-01-02T11:09:05.129Z,2.60
2019-01-02T11:10:05.139Z,2.61
2019-01-02T11:11:05.147Z,3.06
2019-01-02T11:12:05.156Z,3.28
2019-01-02T11:13:05.160Z,3.35
2019-01-02T11:14:05.172Z,3.69
2019-01-02T11:15:05.179Z,3.91
2019-01-02T11:16:05.192Z,4.12
2019-01-02T11:17:05.194Z,3.62
2019-01-02T11:18:05.207Z,3.58
2019-01-02T11:19:05.212Z,2.53
2019-01-02T11:20:05.222Z,2.34
2019-01-02T11:21:05.230Z,2.25
2019-01-02T11:22:05.240Z,2.02
2019-01-02T11:23:05.295Z,2.14
2019-01-02T11:24:05.255Z,1.77
2019-01-02T11:25:05.267Z,1.68
2019-01-02T11:26:05.273Z,2.24
2019-01-02T11:27:05.290Z,1.80
2019-01-02T11:28:05.293Z,1.51
2019-01-02T11:29:05.299Z,1.87
2019-01-02T11:30:05.305Z,2.03
2019-01-02T11:31:05.323Z,2.28
2019-01-02T11:32:05.327Z,2.38
2019-01-02T11:33:05.331Z,2.89
2019-01-02T11:34:05.346Z,3.24
2019-01-02T11:35:05.352Z,4.04
2019-01-02T11:36:05.356Z,4.26
2019-01-02T11:37:05.367Z,4.22
2019-01-02T11:38:05.377Z,4.27
2019-01-02T11:39:05.382Z,4.54
2019-01-02T11:40:05.392Z,4.55
2019-01-02T11:41:05.403Z,4.84
2019-01-02T11:42:05.412Z,4.59
2019-01-02T11:43:05.423Z,4.47
2019-01-02T11:44:05.427Z,3.23
2019-01-02T11:45:05.437Z,1.86
2019-01-02T11:46:05.446Z,1.73
2019-01-02T11:47:05.455Z,1.54
2019-01-02T11:48:05.466Z,2.09
2019-01-02T11:49:05.517Z,2.25
2019-01-02T11:50:05.482Z,1.95
2019-01-02T11:51:05.490Z,2.02
2019-01-02T11:52:05.503Z,2.52
2019-01-02T11:53:05.510Z,2.03
2019-01-02T11:54:05.519Z,1.83
2019-01-02T11:55:05.526Z,1.24
2019-01-02T11:56:05.534Z,1.65
2019-01-02T11:57:05.543Z,1.63
2019-01-02T11:58:05.552Z,2.02
2019-01-02T11:59:05.561Z,2.17
2019-01-02T12:00:05.577Z,1.51
2019-01-02T12:01:05.578Z,2.03
2019-01-02T12:02:05.588Z,2.27
2019-01-02T12:03:05.596Z,3.03
2019-01-02T12:04:05.605Z,3.36
2019-01-02T12:05:05.615Z,3.36
2019-01-02T12:06:05.621Z,3.93
2019-01-02T12:07:05.632Z,3.66
2019-01-02T12:08:05.640Z,3.96
2019-01-02T12:09:05.650Z,3.75
2019-01-02T12:10:05.657Z,3.52
2019-01-02T12:11:05.668Z,3.54
2019-01-02T12:12:05.674Z,4.05
2019-01-02T12:13:07.029Z,4.12
2019-01-02T12:14:05.694Z,4.15
2019-01-02T12:15:05.706Z,4.23
2019-01-02T12:16:05.714Z,4.69
2019-01-02T12:17:05.721Z,3.75
2019-01-02T12:18:05.731Z,3.33
2019-01-02T12:19:05.740Z,3.43
2019-01-02T12:20:05.748Z,3.90
2019-01-02T12:21:05.757Z,3.48
2019-01-02T12:22:05.771Z,2.96
2019-01-02T12:23:05.778Z,2.49
2019-01-02T12:24:05.788Z,2.72
2019-01-02T12:25:05.797Z,3.10
2019-01-02T12:26:05.862Z,3.31
2019-01-02T12:27:05.816Z,3.75
2019-01-02T12:28:05.829Z,3.76
2019-01-02T12:29:05.834Z,3.17
2019-01-02T12:30:05.846Z,3.32
2019-01-02T12:31:05.854Z,3.28
2019-01-02T12:32:05.866Z,3.70
2019-01-02T12:33:06.815Z,4.06
2019-01-02T12:34:05.883Z,3.61
2019-01-02T12:35:05.895Z,3.79
2019-01-02T12:36:05.902Z,3.69
2019-01-02T12:37:05.911Z,2.41
2019-01-02T12:38:05.922Z,2.09
2019-01-02T12:39:05.961Z,2.49
2019-01-02T12:40:05.942Z,2.56
2019-01-02T12:41:05.950Z,3.21
2019-01-02T12:42:05.962Z,3.26
2019-01-02T12:43:06.025Z,3.70
2019-01-02T12:44:05.978Z,2.87
2019-01-02T12:45:05.989Z,3.05
2019-01-02T12:46:05.999Z,3.55
2019-01-02T12:47:06.011Z,3.96
2019-01-02T12:48:06.021Z,3.83
2019-01-02T12:49:06.034Z,3.02
2019-01-02T12:50:06.037Z,2.05
2019-01-02T12:51:06.098Z,1.63
2019-01-02T12:52:06.058Z,1.37
2019-01-02T12:53:06.065Z,1.15
2019-01-02T12:54:06.078Z,0.66
2019-01-02T12:55:06.089Z,0.62
2019-01-02T12:56:06.098Z,0.70
2019-01-02T12:57:06.104Z,1.47
2019-01-02T12:58:06.113Z,1.87
2019-01-02T12:59:06.125Z,2.45
2019-01-02T13:00:06.133Z,2.90
2019-01-02T13:01:06.139Z,3.08
2019-01-02T13:02:06.149Z,2.82
2019-01-02T13:03:06.159Z,2.63